Time;durP1;ratioP1;P1;durP2;ratioP2;P2;SDS_P1;SDS_P2;PMS_P1;PMS_P2;Temp;Humidity;BMP_temperature;BMP_pressure;BME280_temperature;BME280_humidity;BME280_pressure;Samples;Min_cycle;Max_cycle;Signal;HPM_P1;HPM_P2
2022/06/03 00:02:06;;;;;;;15.45;10.85;;;;;;;14.11;61.57;101906.41;4984990;28;20022;-77
2022/06/03 00:04:56;;;;;;;12.97;10.87;;;;;;;14.14;61.34;101903.91;4989986;28;20042;-77
2022/06/03 00:07:38;;;;;;;14.68;10.60;;;;;;;14.05;61.77;101896.69;4981109;28;20129;-76
2022/06/03 00:10:24;;;;;;;12.77;10.80;;;;;;;14.03;61.92;101906.22;4989223;28;20054;-77
2022/06/03 00:12:54;;;;;;;12.85;10.45;;;;;;;13.98;61.88;101903.50;4988106;28;20026;-76
2022/06/03 00:15:48;;;;;;;14.07;10.80;;;;;;;13.95;62.27;101908.66;4989862;28;20018;-76
2022/06/03 00:18:48;;;;;;;13.18;10.90;;;;;;;13.99;61.89;101907.88;4988979;28;20034;-76
2022/06/03 00:21:34;;;;;;;13.20;10.60;;;;;;;13.94;61.81;101909.47;4987489;28;20379;-76
2022/06/03 00:24:21;;;;;;;14.15;10.82;;;;;;;13.89;62.07;101913.72;4990096;28;20034;-76
2022/06/03 00:27:07;;;;;;;14.52;11.30;;;;;;;13.82;62.45;101910.03;4972461;28;20093;-77
2022/06/03 00:29:48;;;;;;;14.10;11.23;;;;;;;13.79;62.85;101907.34;4975501;28;20042;-76
2022/06/03 00:32:40;;;;;;;13.43;11.07;;;;;;;13.78;62.40;101904.69;4990219;28;20034;-76
2022/06/03 00:35:20;;;;;;;14.02;11.13;;;;;;;13.76;62.71;101903.75;4989697;28;20030;-77
2022/06/03 00:38:21;;;;;;;13.82;11.45;;;;;;;13.72;62.30;101898.41;4990087;28;20026;-76
2022/06/03 00:41:05;;;;;;;15.65;11.63;;;;;;;13.63;62.80;101900.78;4975043;28;20062;-77
2022/06/03 00:43:48;;;;;;;14.57;12.13;;;;;;;13.63;62.96;101894.66;4989651;28;20038;-76
2022/06/03 00:46:59;;;;;;;12.85;11.13;;;;;;;13.66;62.96;101898.25;4989645;28;20038;-77
2022/06/03 00:49:27;;;;;;;13.43;11.30;;;;;;;13.60;63.47;101891.94;4988239;28;20505;-77
2022/06/03 00:52:26;;;;;;;15.20;12.45;;;;;;;13.62;62.99;101896.41;4988318;28;20501;-77
2022/06/03 00:55:09;;;;;;;15.65;12.02;;;;;;;13.55;63.46;101894.44;4989972;28;20073;-76
2022/06/03 00:58:13;;;;;;;13.73;10.80;;;;;;;13.55;63.06;101894.44;4989613;28;20072;-76
2022/06/03 01:00:57;;;;;;;14.25;11.57;;;;;;;13.52;62.86;101895.25;4990122;28;20049;-77
2022/06/03 01:03:49;;;;;;;13.82;11.10;;;;;;;13.48;63.37;101893.38;4990575;28;20181;-77
2022/06/03 01:06:43;;;;;;;13.65;11.70;;;;;;;13.53;63.34;101890.91;4990255;28;20066;-77
2022/06/03 01:09:28;;;;;;;14.13;11.73;;;;;;;13.51;63.56;101892.56;4984028;28;20161;-77
2022/06/03 01:12:20;;;;;;;13.00;11.25;;;;;;;13.47;63.67;101890.72;4987106;28;20045;-76
2022/06/03 01:15:18;;;;;;;13.43;10.85;;;;;;;13.46;63.79;101883.72;4989904;28;20116;-77
2022/06/03 01:18:02;;;;;;;13.38;10.95;;;;;;;13.47;63.46;101880.25;4989954;28;20497;-76
2022/06/03 01:20:39;;;;;;;13.55;10.82;;;;;;;13.43;63.97;101881.03;4988582;28;20022;-77
2022/06/03 01:23:37;;;;;;;14.95;11.35;;;;;;;13.43;63.88;101870.56;4990969;28;20030;-76
2022/06/03 01:26:22;;;;;;;13.75;10.88;;;;;;;13.44;63.51;101865.34;4986196;28;20145;-76
2022/06/03 01:29:21;;;;;;;14.85;12.15;;;;;;;13.45;63.93;101871.47;4989646;28;20504;-77
2022/06/03 01:32:11;;;;;;;14.23;11.18;;;;;;;13.42;64.29;101860.91;4988351;28;20034;-76
2022/06/03 01:34:55;;;;;;;14.25;11.95;;;;;;;13.42;64.02;101861.78;4988047;28;20659;-77
2022/06/03 01:37:35;;;;;;;13.88;11.40;;;;;;;13.36;64.02;101859.88;4987258;28;20033;-77
2022/06/03 01:40:28;;;;;;;16.13;12.00;;;;;;;13.34;64.38;101863.28;4990258;28;20068;-77
2022/06/03 01:43:00;;;;;;;14.18;11.57;;;;;;;13.32;64.49;101857.97;4986815;28;20120;-77
2022/06/03 01:45:41;;;;;;;14.05;11.63;;;;;;;13.31;64.48;101860.56;4989670;28;20109;-76
2022/06/03 01:48:19;;;;;;;14.25;11.80;;;;;;;13.30;64.73;101854.44;4983913;28;20625;-77
2022/06/03 01:50:54;;;;;;;16.17;11.73;;;;;;;13.28;65.49;101845.69;5001313;28;20018;-76
2022/06/03 01:53:41;;;;;;;14.82;11.90;;;;;;;13.28;64.75;101853.53;4988211;28;20030;-77
2022/06/03 01:56:29;;;;;;;14.23;11.70;;;;;;;13.26;64.80;101855.19;4982811;28;20065;-77
2022/06/03 01:59:06;;;;;;;13.93;11.10;;;;;;;13.27;65.18;101854.38;4988433;28;20041;-76
2022/06/03 02:02:09;;;;;;;13.88;12.07;;;;;;;13.25;64.82;101842.94;4989046;28;20401;-75
2022/06/03 02:05:08;;;;;;;14.75;11.70;;;;;;;13.25;64.75;101845.56;4978898;28;20089;-76
2022/06/03 02:07:43;;;;;;;;;;;;;;;13.37;63.71;101843.34;4980390;28;20517;-76
2022/06/03 02:10:46;;;;;;;16.55;12.00;;;;;;;13.27;64.69;101846.50;4988109;28;19921;-76
2022/06/03 02:13:23;;;;;;;14.50;12.57;;;;;;;13.22;64.88;101833.28;4989997;28;20110;-76
2022/06/03 02:16:16;;;;;;;15.88;12.30;;;;;;;13.19;64.92;101834.91;4987458;28;20647;-76
2022/06/03 02:18:41;;;;;;;15.13;11.85;;;;;;;13.14;65.03;101828.69;4987459;28;20030;-76
2022/06/03 02:21:44;;;;;;;15.32;12.38;;;;;;;13.13;65.43;101826.91;4988279;28;20036;-76
2022/06/03 02:24:41;;;;;;;15.60;12.30;;;;;;;13.10;65.18;101835.53;4987444;28;20041;-76
2022/06/03 02:27:34;;;;;;;15.10;11.95;;;;;;;13.05;65.45;101840.66;4989631;28;20508;-76
2022/06/03 02:30:24;;;;;;;14.18;12.57;;;;;;;13.04;65.33;101831.03;4976794;28;20549;-77
2022/06/03 02:33:27;;;;;;;16.08;13.00;;;;;;;13.03;65.21;101837.13;4989760;28;20042;-77
2022/06/03 02:36:29;;;;;;;15.50;12.75;;;;;;;13.01;65.27;101833.53;4989861;28;20023;-77
2022/06/03 02:39:23;;;;;;;15.40;12.73;;;;;;;12.99;65.44;101835.25;4992459;28;20121;-77
2022/06/03 02:42:17;;;;;;;17.00;13.45;;;;;;;12.93;65.58;101826.31;4985734;28;20109;-77
2022/06/03 02:45:04;;;;;;;15.65;12.52;;;;;;;12.92;65.98;101829.75;4981307;28;21128;-77
2022/06/03 02:48:00;;;;;;;16.23;13.25;;;;;;;12.92;65.63;101824.53;4992046;28;20053;-77
2022/06/03 02:50:44;;;;;;;17.45;14.18;;;;;;;12.89;65.95;101820.13;4993710;28;20030;-77
2022/06/03 02:53:47;;;;;;;17.00;13.77;;;;;;;12.90;65.97;101810.53;4993338;28;20041;-76
2022/06/03 02:56:21;;;;;;;17.58;14.30;;;;;;;12.81;66.38;101812.03;4975337;28;20027;-76
2022/06/03 02:59:24;;;;;;;17.70;13.55;;;;;;;12.82;66.15;101810.31;4984234;28;20030;-75
2022/06/03 03:02:14;;;;;;;18.38;13.85;;;;;;;12.76;66.09;101818.88;4992891;28;20034;-76
2022/06/03 03:04:58;;;;;;;17.42;14.23;;;;;;;12.78;66.34;101829.38;4990088;28;20049;-76
2022/06/03 03:07:50;;;;;;;17.52;14.73;;;;;;;12.77;66.64;101823.22;4993635;28;20053;-75
2022/06/03 03:10:40;;;;;;;16.08;13.68;;;;;;;12.73;66.98;101821.38;4992334;28;20492;-75
2022/06/03 03:13:26;;;;;;;19.05;14.60;;;;;;;12.66;66.86;101825.53;4992953;28;20042;-76
2022/06/03 03:16:34;;;;;;;15.98;14.00;;;;;;;12.73;66.24;101831.84;4990330;28;20057;-76
2022/06/03 03:19:50;;;;;;;17.25;13.85;;;;;;;12.73;66.46;101817.88;4987328;28;20405;-76
2022/06/03 03:22:27;;;;;;;16.83;13.38;;;;;;;12.63;66.98;101809.75;4980301;28;20046;-76
2022/06/03 03:25:08;;;;;;;18.42;14.07;;;;;;;12.60;67.32;101799.22;4991242;28;20030;-76
2022/06/03 03:27:45;;;;;;;16.50;13.48;;;;;;;12.55;67.39;101807.75;4987468;28;20066;-76
2022/06/03 03:30:26;;;;;;;16.38;13.57;;;;;;;12.55;67.17;101806.00;4992213;28;20519;-76
2022/06/03 03:33:23;;;;;;;16.40;13.65;;;;;;;12.56;66.83;101807.78;4980856;28;20046;-76
2022/06/03 03:36:27;;;;;;;18.75;14.25;;;;;;;12.54;67.19;101801.59;4991042;28;20506;-76
2022/06/03 03:38:55;;;;;;;16.67;13.48;;;;;;;12.52;67.44;101803.31;4988507;28;20659;-76
2022/06/03 03:42:04;;;;;;;17.98;14.25;;;;;;;12.53;67.40;101800.72;4991438;28;20414;-76
2022/06/03 03:44:41;;;;;;;17.48;13.20;;;;;;;12.48;67.65;101791.88;4996521;28;20112;-76
2022/06/03 03:47:15;;;;;;;17.02;13.82;;;;;;;12.45;67.79;101799.59;4988095;28;20768;-76
2022/06/03 03:50:11;;;;;;;17.90;13.55;;;;;;;12.46;67.38;101796.16;4990006;28;20086;-76
2022/06/03 03:52:55;;;;;;;17.20;12.93;;;;;;;12.44;67.71;101799.56;4989647;28;20490;-76
2022/06/03 03:55:45;;;;;;;17.67;13.68;;;;;;;12.42;67.85;101794.28;4983035;28;20049;-76
2022/06/03 03:58:40;;;;;;;17.92;13.63;;;;;;;12.43;67.87;101795.19;4991202;28;20061;-77
2022/06/03 04:01:43;;;;;;;18.92;13.32;;;;;;;12.44;67.81;101796.94;4979274;28;20105;-77
2022/06/03 04:04:27;;;;;;;20.42;13.90;;;;;;;12.44;67.94;101792.63;4991014;28;20512;-77
2022/06/03 04:07:27;;;;;;;17.40;13.23;;;;;;;12.42;67.90;101786.44;4988909;28;20081;-77
2022/06/03 04:10:30;;;;;;;17.17;14.02;;;;;;;12.39;67.89;101788.09;4981563;28;20065;-77
2022/06/03 04:13:09;;;;;;;18.05;13.95;;;;;;;12.34;67.96;101783.59;4983941;28;20037;-77
2022/06/03 04:15:48;;;;;;;18.65;14.57;;;;;;;12.38;68.36;101789.78;5303064;23;20532;-76
2022/06/03 04:18:41;;;;;;;18.17;14.38;;;;;;;12.37;68.31;101781.91;4989503;28;20061;-76
2022/06/03 04:21:18;;;;;;;18.77;14.85;;;;;;;12.39;68.43;101788.97;4984569;28;20030;-76
2022/06/03 04:24:10;;;;;;;18.00;14.57;;;;;;;12.43;68.30;101789.97;4986168;28;20033;-76
2022/06/03 04:27:07;;;;;;;21.13;14.98;;;;;;;12.39;68.88;101788.97;4986837;28;20023;-76
2022/06/03 04:29:54;;;;;;;21.42;14.95;;;;;;;12.41;69.22;101773.31;4988980;28;20022;-77
2022/06/03 04:32:46;;;;;;;18.42;14.55;;;;;;;12.43;68.80;101772.53;5005325;28;20121;-77
2022/06/03 04:35:37;;;;;;;20.02;15.48;;;;;;;12.41;69.16;101770.72;4987830;28;20026;-77
2022/06/03 04:38:40;;;;;;;19.63;15.20;;;;;;;12.47;68.87;101778.72;5005946;28;20034;-76
2022/06/03 04:41:23;;;;;;;20.45;15.38;;;;;;;12.43;69.21;101780.38;4989172;28;20030;-76
2022/06/03 04:44:40;;;;;;;19.48;15.25;;;;;;;12.49;69.16;101784.91;4978980;28;20034;-77
2022/06/03 04:47:23;;;;;;;22.05;15.80;;;;;;;12.50;69.27;101797.16;4985880;28;20038;-76
2022/06/03 04:50:10;;;;;;;20.08;15.57;;;;;;;12.45;69.80;101793.50;5005108;28;20481;-76
2022/06/03 04:53:23;;;;;;;22.13;16.48;;;;;;;12.52;69.57;101798.06;4987554;28;20029;-76
2022/06/03 04:56:13;;;;;;;21.27;16.42;;;;;;;12.55;69.77;101808.63;4973825;28;20051;-76
2022/06/03 04:59:22;;;;;;;22.70;17.73;;;;;;;12.61;69.69;101798.34;4988275;28;20105;-76
2022/06/03 05:02:06;;;;;;;21.77;17.27;;;;;;;12.63;69.94;101794.06;4975567;28;20061;-76
2022/06/03 05:04:40;;;;;;;20.17;15.68;;;;;;;12.69;70.39;101785.53;4985007;28;20053;-77
2022/06/03 05:07:25;;;;;;;24.05;15.65;;;;;;;12.75;70.01;101782.22;4974313;28;20405;-77
2022/06/03 05:10:44;;;;;;;22.83;15.98;;;;;;;12.77;69.88;101790.97;4983855;28;20027;-77
2022/06/03 05:13:35;;;;;;;22.50;16.52;;;;;;;12.79;70.15;101792.78;4981512;28;20070;-76
2022/06/03 05:16:25;;;;;;;23.40;16.33;;;;;;;12.87;69.67;101796.53;4952935;28;1079292;-76
2022/06/03 05:18:54;;;;;;;23.20;17.42;;;;;;;12.88;70.27;101797.41;4989553;28;20064;-77
2022/06/03 05:21:32;;;;;;;23.13;16.85;;;;;;;12.93;69.70;101792.31;4992066;28;20493;-77
2022/06/03 05:24:13;;;;;;;23.13;18.02;;;;;;;12.95;69.75;101780.19;4982548;28;20593;-77
2022/06/03 05:27:06;;;;;;;24.23;16.98;;;;;;;12.95;69.64;101782.78;4990385;28;20018;-77
2022/06/03 05:29:38;;;;;;;21.50;16.63;;;;;;;12.97;69.85;101779.34;4990168;28;20529;-76
2022/06/03 05:32:16;;;;;;;23.38;16.48;;;;;;;13.02;69.91;101777.78;4987841;28;20038;-76
2022/06/03 05:35:20;;;;;;;23.75;17.85;;;;;;;13.04;69.97;101778.69;4990025;28;20037;-76
2022/06/03 05:38:04;;;;;;;23.80;17.92;;;;;;;13.07;70.60;101775.28;4982331;28;20096;-77
2022/06/03 05:40:41;;;;;;;24.75;18.33;;;;;;;13.11;69.47;101778.88;4991245;28;20030;-76
2022/06/03 05:43:18;;;;;;;25.90;17.50;;;;;;;13.14;70.15;101778.97;4989224;28;20085;-76
2022/06/03 05:45:51;;;;;;;25.85;18.10;;;;;;;13.15;70.73;101780.72;4993058;28;20026;-76
2022/06/03 05:48:28;;;;;;;25.98;18.63;;;;;;;13.20;70.24;101781.75;4990416;28;20029;-76
2022/06/03 05:51:19;;;;;;;25.20;18.27;;;;;;;13.28;69.79;101780.25;4993712;28;20057;-76
2022/06/03 05:53:56;;;;;;;25.13;18.52;;;;;;;13.31;70.67;101775.09;4989818;28;20116;-76
2022/06/03 05:56:45;;;;;;;26.65;18.58;;;;;;;13.41;70.07;101775.34;4991104;28;20034;-76
2022/06/03 05:59:20;;;;;;;26.92;18.45;;;;;;;13.49;68.51;101769.47;4990385;28;20509;-77
2022/06/03 06:02:04;;;;;;;28.85;18.85;;;;;;;13.60;68.89;101782.88;4986045;28;20030;-76
2022/06/03 06:04:44;;;;;;;25.90;18.73;;;;;;;13.67;68.89;101779.56;4988919;28;20117;-76
2022/06/03 06:07:34;;;;;;;28.33;19.25;;;;;;;13.76;68.02;101776.28;4988351;28;20109;-76
2022/06/03 06:10:23;;;;;;;26.15;18.42;;;;;;;13.85;68.73;101783.50;4987963;28;20509;-76
2022/06/03 06:13:07;;;;;;;26.83;18.77;;;;;;;13.94;67.51;101777.59;4993889;28;20501;-76
2022/06/03 06:15:59;;;;;;;27.40;18.90;;;;;;;14.00;68.86;101776.00;4992902;28;20105;-76
2022/06/03 06:18:43;;;;;;;27.67;19.20;;;;;;;14.08;68.06;101774.47;4992416;28;20442;-76
2022/06/03 06:21:46;;;;;;;29.10;19.88;;;;;;;14.18;67.50;101779.91;4993316;28;20030;-76
2022/06/03 06:24:18;;;;;;;28.65;20.13;;;;;;;14.24;67.31;101788.81;4997293;28;20489;-76
2022/06/03 06:27:05;;;;;;;28.58;20.60;;;;;;;14.31;68.04;101796.81;4993838;28;20113;-76
2022/06/03 06:29:42;;;;;;;28.33;20.08;;;;;;;14.38;67.80;101786.53;4993379;28;20521;-76
2022/06/03 06:32:31;;;;;;;29.77;20.27;;;;;;;14.46;66.73;101775.34;4993727;28;20502;-76
2022/06/03 06:35:26;;;;;;;29.80;20.75;;;;;;;14.52;66.52;101785.94;4995720;28;20058;-75
2022/06/03 06:38:06;;;;;;;28.27;19.65;;;;;;;14.59;66.31;101780.00;4994252;28;20128;-75
2022/06/03 06:40:37;;;;;;;30.20;21.27;;;;;;;14.66;67.30;101784.56;4993457;28;20493;-75
2022/06/03 06:43:24;;;;;;;29.60;19.85;;;;;;;14.74;67.36;101782.09;4992710;28;20097;-75
2022/06/03 06:45:58;;;;;;;29.88;20.33;;;;;;;14.81;66.97;101775.25;4994047;28;20106;-75
2022/06/03 06:48:34;;;;;;;29.73;20.58;;;;;;;14.86;65.98;101777.13;4993375;28;20050;-75
2022/06/03 06:50:59;;;;;;;27.55;20.20;;;;;;;14.92;66.01;101778.97;4991928;28;20034;-75
2022/06/03 06:53:48;;;;;;;31.02;20.33;;;;;;;14.99;66.39;101780.88;4994177;28;20073;-75
2022/06/03 06:56:22;;;;;;;32.88;20.77;;;;;;;15.04;65.69;101781.84;4994222;28;20030;-76
2022/06/03 06:59:01;;;;;;;30.67;21.15;;;;;;;15.10;66.19;101783.72;4993558;28;20018;-76
2022/06/03 07:01:43;;;;;;;30.75;21.58;;;;;;;15.19;66.77;101781.25;4992086;28;20018;-76
2022/06/03 07:04:21;;;;;;;31.50;21.27;;;;;;;15.28;66.32;101784.06;4994187;28;20221;-77
2022/06/03 07:06:54;;;;;;;34.47;22.00;;;;;;;15.34;67.82;101782.41;4994088;28;20026;-77
2022/06/03 07:09:31;;;;;;;31.58;21.70;;;;;;;15.40;66.34;101788.66;4992540;28;20493;-76
2022/06/03 07:12:09;;;;;;;33.10;22.00;;;;;;;15.44;65.05;101777.38;4993491;28;20113;-77
2022/06/03 07:14:45;;;;;;;34.08;21.58;;;;;;;15.52;65.62;101776.63;5006984;28;20081;-77
2022/06/03 07:20:22;;;;;;;35.50;22.55;;;;;;;15.64;64.41;101768.94;4988400;28;20169;-76
2022/06/03 07:22:56;;;;;;;37.80;23.23;;;;;;;15.69;63.40;101769.06;4992995;28;20030;-77
2022/06/03 07:25:42;;;;;;;38.25;23.85;;;;;;;15.74;65.09;101770.91;4990839;28;20473;-77
2022/06/03 07:28:13;;;;;;;35.45;23.08;;;;;;;15.79;65.74;101761.38;4993397;28;20058;-76
2022/06/03 07:30:52;;;;;;;38.42;23.65;;;;;;;15.85;66.99;101754.47;4991547;28;20034;-77
2022/06/03 07:33:30;;;;;;;39.72;24.33;;;;;;;15.91;65.82;101759.81;4992346;28;20037;-77
2022/06/03 07:36:01;;;;;;;38.85;25.00;;;;;;;15.99;63.75;101758.19;4991856;28;20030;-77
2022/06/03 07:38:32;;;;;;;37.75;24.67;;;;;;;16.05;65.01;101755.66;4992803;28;20054;-77
2022/06/03 07:41:07;;;;;;;39.22;24.48;;;;;;;16.07;64.98;101761.81;4991609;28;20077;-77
2022/06/03 07:43:48;;;;;;;38.55;25.60;;;;;;;16.17;67.00;101762.84;4998272;28;20030;-76
2022/06/03 07:46:20;;;;;;;41.28;27.48;;;;;;;16.22;65.65;101762.91;4992490;28;20490;-77
2022/06/03 07:48:46;;;;;;;42.83;27.23;;;;;;;16.26;64.52;101762.09;4993252;28;20497;-73
2022/06/03 07:51:32;;;;;;;42.22;26.83;;;;;;;16.29;64.61;101752.53;4993058;28;20116;-73
2022/06/03 07:54:11;;;;;;;45.65;28.45;;;;;;;16.38;67.52;101745.59;4998219;28;20563;-73
2022/06/03 07:56:39;;;;;;;44.30;28.20;;;;;;;16.48;68.83;101747.50;4981864;28;20031;-73
2022/06/03 07:59:18;;;;;;;46.00;28.08;;;;;;;16.54;66.32;101759.84;4992212;28;20030;-73
2022/06/03 08:01:56;;;;;;;46.47;28.37;;;;;;;16.58;65.80;101764.31;4992093;28;20037;-73
2022/06/03 08:04:36;;;;;;;44.37;26.87;;;;;;;16.68;65.95;101758.28;4979963;28;20022;-73
2022/06/03 08:12:36;;;;;;;43.03;26.45;;;;;;;16.89;65.94;101748.94;4992291;28;20081;-73
2022/06/03 08:15:19;;;;;;;45.07;26.87;;;;;;;16.95;64.63;101736.72;4992858;28;20047;-73
2022/06/03 08:17:46;;;;;;;44.92;26.73;;;;;;;17.02;65.30;101729.81;4992556;28;20316;-73
2022/06/03 08:20:14;;;;;;;43.97;25.92;;;;;;;17.07;62.47;101721.94;4992471;28;20026;-72
2022/06/03 08:22:39;;;;;;;44.22;27.77;;;;;;;17.13;65.02;101716.72;4991293;28;20030;-72
2022/06/03 08:25:07;;;;;;;45.83;28.92;;;;;;;17.20;62.12;101713.28;4991977;28;20034;-73
2022/06/03 08:27:35;;;;;;;51.00;28.90;;;;;;;17.24;63.38;101722.13;4992694;28;20112;-73
2022/06/03 08:30:10;;;;;;;49.50;28.60;;;;;;;17.31;63.74;101726.59;4991096;28;20030;-73
2022/06/03 08:32:43;;;;;;;50.50;30.27;;;;;;;17.38;66.32;101718.75;4990300;28;20033;-73
2022/06/03 08:35:15;;;;;;;50.30;29.42;;;;;;;17.41;64.36;101723.19;4990251;28;20490;-72
2022/06/03 08:38:00;;;;;;;45.92;29.20;;;;;;;17.42;63.05;101719.66;4992474;28;20069;-72
2022/06/03 08:40:37;;;;;;;48.55;29.35;;;;;;;17.51;65.32;101718.84;4991876;28;20410;-73
2022/06/03 08:43:25;;;;;;;48.30;28.88;;;;;;;17.58;65.25;101717.16;4989264;28;20395;-73
2022/06/03 08:46:16;;;;;;;49.30;29.23;;;;;;;17.67;63.62;101715.50;4990094;28;20520;-73
2022/06/03 08:48:45;;;;;;;46.38;27.20;;;;;;;17.77;65.76;101718.19;4990987;28;20034;-73
2022/06/03 08:51:37;;;;;;;45.10;28.25;;;;;;;17.86;65.64;101721.78;4990734;28;20481;-73
2022/06/03 08:54:02;;;;;;;48.83;28.20;;;;;;;17.97;65.42;101724.53;4990436;28;20145;-73
2022/06/03 08:56:35;;;;;;;51.65;28.25;;;;;;;18.05;63.25;101727.22;4989768;28;21068;-73
2022/06/03 08:59:05;;;;;;;47.92;27.75;;;;;;;18.14;62.91;101729.03;4990338;28;20037;-73
2022/06/03 09:01:55;;;;;;;45.40;26.95;;;;;;;18.21;63.43;101729.09;4991806;28;20086;-72
2022/06/03 09:04:21;;;;;;;50.33;27.02;;;;;;;18.30;63.75;101722.97;4991698;28;20034;-72
2022/06/03 09:07:31;;;;;;;45.10;28.27;;;;;;;18.40;64.26;101722.16;4990113;28;20050;-73
2022/06/03 09:10:10;;;;;;;43.45;26.20;;;;;;;18.44;62.39;101723.06;4990382;28;20042;-73
2022/06/03 09:12:47;;;;;;;41.15;25.67;;;;;;;18.49;59.75;101717.81;4991808;28;20524;-74
2022/06/03 09:15:20;;;;;;;40.10;25.52;;;;;;;18.57;63.21;101716.97;4976951;28;20395;-74
2022/06/03 09:17:56;;;;;;;42.22;25.33;;;;;;;18.60;61.65;101716.09;4989583;28;20113;-74
2022/06/03 09:20:25;;;;;;;40.67;24.77;;;;;;;18.67;61.65;101723.19;4991114;28;20026;-74
2022/06/03 09:22:58;;;;;;;42.80;25.73;;;;;;;18.71;61.95;101719.69;4990324;28;20037;-74
2022/06/03 09:25:24;;;;;;;39.58;24.85;;;;;;;18.72;58.93;101721.41;4991424;28;20019;-73
2022/06/03 09:27:51;;;;;;;38.80;23.95;;;;;;;18.79;58.70;101721.47;4989097;28;20026;-73
2022/06/03 09:30:26;;;;;;;34.55;21.70;;;;;;;18.84;61.14;101717.97;4990909;28;20035;-73
2022/06/03 09:32:51;;;;;;;39.22;23.85;;;;;;;18.94;60.78;101710.97;4989682;28;20072;-74
2022/06/03 09:35:20;;;;;;;36.38;22.55;;;;;;;18.94;57.40;101709.22;4990746;28;20117;-73
2022/06/03 09:37:50;;;;;;;30.80;20.58;;;;;;;19.06;59.09;101699.53;4991339;28;20054;-74
2022/06/03 09:40:22;;;;;;;34.00;21.98;;;;;;;19.18;59.56;101711.91;4991461;28;20019;-73
2022/06/03 09:42:57;;;;;;;31.10;20.98;;;;;;;19.20;57.91;101703.09;4990524;28;20033;-74
2022/06/03 09:45:24;;;;;;;28.42;17.65;;;;;;;19.26;54.67;101699.56;4996223;28;20109;-74
2022/06/03 09:47:51;;;;;;;27.02;16.38;;;;;;;19.27;54.62;101702.22;4994114;28;20026;-73
2022/06/03 09:50:18;;;;;;;28.15;16.92;;;;;;;19.42;55.23;101695.19;4991270;28;20673;-74
2022/06/03 09:52:45;;;;;;;24.08;14.80;;;;;;;19.48;54.61;101702.25;4996022;28;20042;-75
2022/06/03 09:55:32;;;;;;;24.63;15.88;;;;;;;19.49;53.33;101702.25;4988331;28;20037;-73
2022/06/03 09:58:00;;;;;;;22.42;14.98;;;;;;;19.53;52.39;101690.78;4989455;28;20035;-74
2022/06/03 10:00:30;;;;;;;20.88;14.02;;;;;;;19.57;51.17;101694.34;4990768;28;20782;-74
2022/06/03 10:02:58;;;;;;;22.23;13.40;;;;;;;19.63;52.59;101692.53;4993504;28;20045;-74
2022/06/03 10:05:24;;;;;;;21.98;11.70;;;;;;;19.72;52.04;101690.78;4998743;28;20038;-74
2022/06/03 10:07:59;;;;;;;16.58;10.00;;;;;;;19.77;54.05;101699.63;4991097;28;20067;-74
2022/06/03 10:13:09;;;;;;;21.58;14.73;;;;;;;19.83;49.63;101688.16;4991248;28;20129;-74
2022/06/03 10:15:39;;;;;;;25.02;14.52;;;;;;;19.82;50.61;101687.28;4990700;28;20514;-74
2022/06/03 10:18:11;;;;;;;19.20;12.02;;;;;;;19.92;50.42;101678.44;4990553;28;20034;-74
2022/06/03 10:20:37;;;;;;;18.90;11.50;;;;;;;20.01;49.84;101684.63;4989260;28;20054;-74
2022/06/03 10:23:04;;;;;;;16.40;10.50;;;;;;;20.05;52.56;101676.66;4990401;28;20049;-74
2022/06/03 10:25:30;;;;;;;19.65;12.63;;;;;;;20.10;48.67;101674.91;4989594;28;20077;-74
2022/06/03 10:27:55;;;;;;;18.27;10.57;;;;;;;20.19;50.89;101668.69;4990176;28;20026;-74
2022/06/03 10:30:31;;;;;;;19.17;12.27;;;;;;;20.32;49.64;101667.75;4990609;28;20030;-74
2022/06/03 10:32:56;;;;;;;14.48;9.93;;;;;;;20.36;50.65;101663.31;4990758;28;20022;-74
2022/06/03 10:35:34;;;;;;;16.05;10.68;;;;;;;20.39;50.86;101655.41;4990497;28;20504;-74
2022/06/03 10:38:03;;;;;;;12.70;9.48;;;;;;;20.51;46.50;101654.44;4981986;28;20481;-74
2022/06/03 10:40:29;;;;;;;13.40;8.93;;;;;;;20.53;45.49;101655.31;4990107;28;20034;-74
2022/06/03 10:42:58;;;;;;;10.02;7.72;;;;;;;20.54;47.36;101654.44;4990525;28;20034;-74
2022/06/03 10:45:33;;;;;;;13.82;9.02;;;;;;;20.51;47.43;101662.41;4991351;28;20061;-74
2022/06/03 10:47:59;;;;;;;13.52;8.73;;;;;;;20.60;51.09;101657.03;4999106;28;20085;-75
2022/06/03 10:50:35;;;;;;;15.73;9.77;;;;;;;20.76;52.11;101657.00;4989383;28;20039;-75
2022/06/03 11:01:41;;;;;;;;;;;;;;;20.90;51.00;101649.84;4995215;28;20089;-74
2022/06/03 11:04:06;;;;;;;11.07;7.72;;;;;;;21.06;50.08;101652.38;4995847;28;20388;-74
2022/06/03 11:06:38;;;;;;;9.57;6.72;;;;;;;21.12;47.65;101644.41;5000570;28;20043;-75
2022/06/03 11:09:07;;;;;;;10.45;6.90;;;;;;;21.19;45.59;101646.13;4996466;28;20485;-74
2022/06/03 11:11:49;;;;;;;12.13;7.82;;;;;;;21.23;49.22;101642.53;4994070;28;20018;-74
2022/06/03 11:14:42;;;;;;;13.90;8.93;;;;;;;21.34;47.90;101643.31;4990319;28;20127;-74
2022/06/03 11:17:19;;;;;;;13.65;9.32;;;;;;;21.31;44.93;101635.41;4998952;28;20046;-74
2022/06/03 11:19:48;;;;;;;8.98;6.93;;;;;;;21.37;41.57;101643.28;4993339;28;20433;-74
2022/06/03 11:22:19;;;;;;;9.65;6.45;;;;;;;21.45;42.19;101634.41;4987334;28;20026;-74
2022/06/03 11:24:50;;;;;;;8.73;6.22;;;;;;;21.51;44.69;101637.06;4993644;28;20121;-74
2022/06/03 11:27:19;;;;;;;11.13;6.78;;;;;;;21.57;42.40;101633.47;4994641;28;20393;-74
2022/06/03 11:29:48;;;;;;;10.40;7.20;;;;;;;21.63;45.79;101636.03;4996788;28;20034;-74
2022/06/03 11:32:16;;;;;;;9.45;7.03;;;;;;;21.60;40.42;101623.69;4992669;28;20030;-75
2022/06/03 11:34:54;;;;;;;10.10;6.00;;;;;;;21.59;42.53;101629.88;4994366;28;20022;-74
2022/06/03 11:37:41;;;;;;;10.30;7.38;;;;;;;21.57;43.28;101634.34;4992995;28;20098;-75
2022/06/03 11:40:15;;;;;;;9.90;7.50;;;;;;;21.57;40.60;101626.38;4993358;28;20021;-75
2022/06/03 11:42:41;;;;;;;9.90;6.50;;;;;;;21.60;43.56;101629.00;4991438;28;20072;-77
2022/06/03 11:45:14;;;;;;;9.52;6.70;;;;;;;21.70;44.90;101627.13;4992184;28;20058;-77
2022/06/03 11:47:49;;;;;;;9.40;7.10;;;;;;;21.73;41.71;101626.22;4990806;28;20026;-75
2022/06/03 11:50:18;;;;;;;8.52;7.00;;;;;;;21.76;40.00;101626.19;4994663;28;20482;-75
2022/06/03 11:52:43;;;;;;;13.32;7.35;;;;;;;21.80;39.45;101622.63;4997319;28;20026;-76
2022/06/03 11:55:10;;;;;;;9.07;6.85;;;;;;;21.76;41.90;101626.19;4994313;28;20015;-76
2022/06/03 11:57:40;;;;;;;9.60;6.90;;;;;;;21.77;39.92;101630.59;5003182;28;20026;-76
2022/06/03 12:00:11;;;;;;;13.70;7.38;;;;;;;21.85;43.79;101634.91;4992095;28;20104;-76
2022/06/03 12:02:54;;;;;;;9.65;7.25;;;;;;;21.85;42.18;101634.03;4998258;28;20025;-75
2022/06/03 12:05:41;;;;;;;10.88;7.38;;;;;;;21.88;41.91;101636.66;4997132;28;20051;-74
2022/06/03 12:08:17;;;;;;;9.10;7.40;;;;;;;21.90;39.92;101642.84;4988443;28;20035;-75
2022/06/03 12:11:03;;;;;;;9.48;6.40;;;;;;;21.95;43.09;101641.00;4990539;28;21889;-75
2022/06/03 12:13:31;;;;;;;7.93;6.68;;;;;;;22.01;41.00;101635.63;4988856;28;20096;-71
2022/06/03 12:15:57;;;;;;;8.38;6.53;;;;;;;22.08;42.46;101633.78;4994615;28;20334;-72
2022/06/03 12:18:34;;;;;;;12.77;8.23;;;;;;;22.10;40.59;101631.09;4992695;28;20038;-71
2022/06/03 12:21:02;;;;;;;10.10;6.50;;;;;;;22.23;45.93;101620.34;4989540;28;20474;-71
2022/06/03 12:23:27;;;;;;;11.05;7.07;;;;;;;22.34;46.15;101619.34;4989178;28;20022;-72
2022/06/03 12:25:53;;;;;;;9.63;7.50;;;;;;;22.42;45.83;101617.47;4991155;28;20033;-71
2022/06/03 12:28:21;;;;;;;11.93;8.15;;;;;;;22.52;41.59;101607.59;4989171;28;20828;-71
2022/06/03 12:30:50;;;;;;;10.25;8.20;;;;;;;22.58;41.58;101604.88;4991093;28;20105;-72
2022/06/03 12:33:37;;;;;;;13.50;7.10;;;;;;;22.68;46.05;101603.84;4991490;28;20150;-71
2022/06/03 12:36:25;;;;;;;10.05;5.72;;;;;;;22.69;43.55;101605.56;4992550;28;20034;-71